createdAt,value
2023-05-14T00:01:53.297Z,16.60
2023-05-14T00:04:22.903Z,16.60
2023-05-14T00:06:51.360Z,16.70
2023-05-14T00:09:21.285Z,16.70
2023-05-14T00:11:49.673Z,16.70
2023-05-14T00:14:18.530Z,16.70
2023-05-14T00:16:46.827Z,16.60
2023-05-14T00:19:15.622Z,16.60
2023-05-14T00:21:44.407Z,16.70
2023-05-14T00:24:12.753Z,16.70
2023-05-14T00:26:42.592Z,16.70
2023-05-14T00:29:11.208Z,16.70
2023-05-14T00:31:39.849Z,16.70
2023-05-14T00:34:08.415Z,16.70
2023-05-14T00:36:36.802Z,16.40
2023-05-14T00:39:05.530Z,16.30
2023-05-14T00:41:33.995Z,16.30
2023-05-14T00:44:04.094Z,16.40
2023-05-14T00:46:32.461Z,16.30
2023-05-14T00:49:01.295Z,16.40
2023-05-14T00:51:29.728Z,16.50
2023-05-14T00:53:58.163Z,16.40
2023-05-14T00:56:27.867Z,16.40
2023-05-14T00:58:56.307Z,16.30
2023-05-14T01:01:28.870Z,16.30
2023-05-14T01:03:58.368Z,16.30
2023-05-14T01:06:34.834Z,16.40
2023-05-14T01:09:18.789Z,16.50
2023-05-14T01:11:54.928Z,16.60
2023-05-14T01:14:31.952Z,16.70
2023-05-14T01:17:05.257Z,16.70
2023-05-14T01:19:40.708Z,16.60
2023-05-14T01:22:10.571Z,16.70
2023-05-14T01:24:39.356Z,16.80
2023-05-14T01:27:11.907Z,16.80
2023-05-14T01:29:44.471Z,16.80
2023-05-14T01:32:15.180Z,16.80
2023-05-14T01:34:44.912Z,16.80
2023-05-14T01:37:15.818Z,16.80
2023-05-14T01:39:45.965Z,16.80
2023-05-14T01:42:14.848Z,16.60
2023-05-14T01:44:45.241Z,16.60
2023-05-14T01:47:13.608Z,16.50
2023-05-14T01:49:42.236Z,16.50
2023-05-14T01:52:11.034Z,16.40
2023-05-14T01:54:41.708Z,16.30
2023-05-14T01:57:10.272Z,16.10
2023-05-14T01:59:38.744Z,16.10
2023-05-14T02:02:07.184Z,16.00
2023-05-14T02:04:37.625Z,16.00
2023-05-14T02:07:06.407Z,16.00
2023-05-14T02:09:34.748Z,15.90
2023-05-14T02:12:04.509Z,15.90
2023-05-14T02:14:32.880Z,15.90
2023-05-14T02:17:01.208Z,15.90
2023-05-14T02:19:30.527Z,15.80
2023-05-14T02:22:00.490Z,15.90
2023-05-14T02:24:29.032Z,15.80
2023-05-14T02:27:00.264Z,15.90
2023-05-14T02:29:30.116Z,15.90
2023-05-14T02:31:58.643Z,15.90
2023-05-14T02:34:27.237Z,15.90
2023-05-14T02:36:56.812Z,15.90
2023-05-14T02:39:25.080Z,15.90
2023-05-14T02:41:53.412Z,16.00
2023-05-14T02:44:21.835Z,15.90
2023-05-14T02:46:51.605Z,16.00
2023-05-14T02:49:19.940Z,16.00
2023-05-14T02:51:48.247Z,16.00
2023-05-14T02:54:17.258Z,16.00
2023-05-14T02:56:45.716Z,16.10
2023-05-14T02:59:14.067Z,16.10
2023-05-14T03:01:42.710Z,16.20
2023-05-14T03:04:12.940Z,16.30
2023-05-14T03:06:41.297Z,16.30
2023-05-14T03:09:10.117Z,16.20
2023-05-14T03:11:38.496Z,16.20
2023-05-14T03:14:06.842Z,16.20
2023-05-14T03:16:35.236Z,16.20
2023-05-14T03:19:04.029Z,16.20
2023-05-14T03:21:33.939Z,16.20
2023-05-14T03:24:02.755Z,16.30
2023-05-14T03:26:31.152Z,16.30
2023-05-14T03:28:59.465Z,16.30
2023-05-14T03:31:27.839Z,16.30
2023-05-14T03:33:58.089Z,16.30
2023-05-14T03:36:26.594Z,16.30
2023-05-14T03:38:56.584Z,16.30
2023-05-14T03:41:25.059Z,16.50
2023-05-14T03:43:53.439Z,16.40
2023-05-14T03:46:21.816Z,16.30
2023-05-14T03:48:50.335Z,16.20
2023-05-14T03:51:19.232Z,16.20
2023-05-14T03:53:47.671Z,16.20
2023-05-14T03:56:17.530Z,16.20
2023-05-14T03:58:45.901Z,16.30
2023-05-14T04:01:14.343Z,16.20
2023-05-14T04:03:42.816Z,16.20
2023-05-14T04:06:11.803Z,16.30
2023-05-14T04:08:40.194Z,16.50
2023-05-14T04:11:08.562Z,16.60
2023-05-14T04:13:38.370Z,16.70
2023-05-14T04:16:07.291Z,16.70
2023-05-14T04:18:36.947Z,16.80
2023-05-14T04:21:05.820Z,16.80
2023-05-14T04:23:34.196Z,16.70
2023-05-14T04:26:02.662Z,16.80
2023-05-14T04:28:31.035Z,16.70
2023-05-14T04:31:01.388Z,16.60
2023-05-14T04:33:29.635Z,16.60
2023-05-14T04:35:57.919Z,16.60
2023-05-14T04:38:26.359Z,16.50
2023-05-14T04:40:54.638Z,16.50
2023-05-14T04:43:22.979Z,16.40
2023-05-14T04:45:51.904Z,16.40
2023-05-14T04:48:21.781Z,16.30
2023-05-14T04:50:50.006Z,16.30
2023-05-14T04:53:18.355Z,16.20
2023-05-14T04:55:46.740Z,16.20
2023-05-14T04:58:15.056Z,16.40
2023-05-14T05:00:43.855Z,16.30
2023-05-14T05:03:12.726Z,16.30
2023-05-14T05:05:42.604Z,16.30
2023-05-14T05:08:11.566Z,16.30
2023-05-14T05:10:39.919Z,16.40
2023-05-14T05:13:08.251Z,16.40
2023-05-14T05:15:36.771Z,16.50
2023-05-14T05:18:05.561Z,16.60
2023-05-14T05:20:34.036Z,16.80
2023-05-14T05:23:04.032Z,16.70
2023-05-14T05:25:32.819Z,16.70
2023-05-14T05:28:01.200Z,16.70
2023-05-14T05:30:30.374Z,16.70
2023-05-14T05:32:58.863Z,16.70
2023-05-14T05:35:27.231Z,16.70
2023-05-14T05:37:55.653Z,16.80
2023-05-14T05:40:25.699Z,16.90
2023-05-14T05:42:54.136Z,16.90
2023-05-14T05:45:22.790Z,16.90
2023-05-14T05:47:51.358Z,17.00
2023-05-14T05:50:20.198Z,17.10
2023-05-14T05:52:51.391Z,17.10
2023-05-14T05:55:20.033Z,17.20
2023-05-14T05:57:49.721Z,17.30
2023-05-14T06:00:19.042Z,17.50
2023-05-14T06:02:48.291Z,17.60
2023-05-14T06:05:16.856Z,17.70
2023-05-14T06:07:45.321Z,17.70
2023-05-14T06:10:13.810Z,17.80
2023-05-14T06:12:42.164Z,17.80
2023-05-14T06:15:14.045Z,17.80
2023-05-14T06:17:43.452Z,17.90
2023-05-14T06:20:12.708Z,17.90
2023-05-14T06:22:41.046Z,18.00
2023-05-14T06:25:10.313Z,18.20
2023-05-14T06:27:38.641Z,18.30
2023-05-14T06:30:08.115Z,18.20
2023-05-14T06:32:38.913Z,18.20
2023-05-14T06:35:08.474Z,18.10
2023-05-14T06:37:36.960Z,17.90
2023-05-14T06:40:06.252Z,18.00
2023-05-14T06:42:34.500Z,17.90
2023-05-14T06:45:02.947Z,18.00
2023-05-14T06:47:31.349Z,18.20
2023-05-14T06:50:02.031Z,18.40
2023-05-14T06:52:30.546Z,18.50
2023-05-14T06:54:58.890Z,18.50
2023-05-14T06:57:27.234Z,18.50
2023-05-14T06:59:55.724Z,18.50
2023-05-14T07:02:24.463Z,18.60
2023-05-14T07:04:52.818Z,18.60
2023-05-14T07:07:23.438Z,18.60
2023-05-14T07:09:51.781Z,19.00
2023-05-14T07:12:20.185Z,19.10
2023-05-14T07:14:48.483Z,19.30
2023-05-14T07:17:18.682Z,19.50
2023-05-14T07:19:47.360Z,19.80
2023-05-14T07:22:15.803Z,20.00
2023-05-14T07:24:45.473Z,20.10
2023-05-14T07:27:14.004Z,20.30
2023-05-14T07:29:42.300Z,20.20
2023-05-14T07:32:11.429Z,20.50
2023-05-14T07:34:41.145Z,20.70
2023-05-14T07:37:09.572Z,20.80
2023-05-14T07:39:37.917Z,21.20
2023-05-14T07:42:07.884Z,21.30
2023-05-14T07:44:36.307Z,21.70
2023-05-14T07:47:07.046Z,22.00
2023-05-14T07:49:35.569Z,22.00
2023-05-14T07:52:04.766Z,22.30
2023-05-14T07:54:33.104Z,22.50
2023-05-14T07:57:01.701Z,22.50
2023-05-14T07:59:32.226Z,22.40
2023-05-14T08:02:00.690Z,22.30
2023-05-14T08:04:29.268Z,22.30
2023-05-14T08:06:58.358Z,22.20
2023-05-14T08:09:26.708Z,22.20
2023-05-14T08:11:55.051Z,22.30
2023-05-14T08:14:23.393Z,22.50
2023-05-14T08:16:53.271Z,22.40
2023-05-14T08:19:21.771Z,22.50
2023-05-14T08:21:50.208Z,22.50
2023-05-14T08:24:19.497Z,22.80
2023-05-14T08:26:47.791Z,22.90
2023-05-14T08:29:16.683Z,23.00
2023-05-14T08:31:45.246Z,22.90
2023-05-14T08:34:15.073Z,22.80
2023-05-14T08:36:43.505Z,22.70
2023-05-14T08:39:11.788Z,22.50
2023-05-14T08:41:41.274Z,22.60
2023-05-14T08:44:14.983Z,22.60
2023-05-14T08:46:43.592Z,22.50
2023-05-14T08:49:22.834Z,22.30
2023-05-14T08:51:51.358Z,22.10
2023-05-14T08:54:22.613Z,21.90
2023-05-14T08:56:53.299Z,21.90
2023-05-14T08:59:21.842Z,21.70
2023-05-14T09:01:53.043Z,21.60
2023-05-14T09:04:24.405Z,21.50
2023-05-14T09:06:54.185Z,21.50
2023-05-14T09:09:23.497Z,21.60
2023-05-14T09:11:52.853Z,21.60
2023-05-14T09:14:21.732Z,21.70
2023-05-14T09:16:51.273Z,21.60
2023-05-14T09:19:20.741Z,21.50
2023-05-14T09:21:51.230Z,21.40
2023-05-14T09:24:24.117Z,21.40
2023-05-14T09:26:53.801Z,21.40
2023-05-14T09:29:22.535Z,21.40
2023-05-14T09:31:52.350Z,21.50
2023-05-14T09:34:28.310Z,21.70
2023-05-14T09:37:00.380Z,21.70
2023-05-14T09:39:29.671Z,21.70
2023-05-14T09:41:58.394Z,21.80
2023-05-14T09:44:27.494Z,21.90
2023-05-14T09:46:56.259Z,21.90
2023-05-14T09:49:24.825Z,22.00
2023-05-14T09:51:53.377Z,22.10
2023-05-14T09:54:23.119Z,22.10
2023-05-14T09:56:52.530Z,22.20
2023-05-14T09:59:21.727Z,22.20
2023-05-14T10:01:52.446Z,22.20
2023-05-14T10:04:21.390Z,22.30
2023-05-14T10:06:54.326Z,22.30
2023-05-14T10:09:28.549Z,22.40
2023-05-14T10:12:01.314Z,22.50
2023-05-14T10:14:34.715Z,22.60
2023-05-14T10:17:04.387Z,22.70
2023-05-14T10:19:34.851Z,22.70
2023-05-14T10:22:06.446Z,22.80
2023-05-14T10:24:38.907Z,22.70
2023-05-14T10:27:07.760Z,22.70
2023-05-14T10:29:39.587Z,22.70
2023-05-14T10:32:10.172Z,22.50
2023-05-14T10:34:41.175Z,22.60
2023-05-14T10:37:12.332Z,22.50
2023-05-14T10:39:47.162Z,22.50
2023-05-14T10:42:18.408Z,22.40
2023-05-14T10:44:55.574Z,22.30
2023-05-14T10:47:24.430Z,22.20
2023-05-14T10:49:55.598Z,22.20
2023-05-14T10:52:26.401Z,22.10
2023-05-14T10:54:58.775Z,22.00
2023-05-14T10:57:29.580Z,21.80
2023-05-14T10:59:59.349Z,21.60
2023-05-14T11:02:28.842Z,21.60
2023-05-14T11:04:59.900Z,21.50
2023-05-14T11:07:33.827Z,21.30
2023-05-14T11:10:05.801Z,21.20
2023-05-14T11:12:34.976Z,21.00
2023-05-14T11:15:05.620Z,21.00
2023-05-14T11:17:34.425Z,20.80
2023-05-14T11:20:02.893Z,20.70
2023-05-14T11:22:31.394Z,20.60
2023-05-14T11:24:59.790Z,20.40
2023-05-14T11:27:31.538Z,20.20
2023-05-14T11:30:02.295Z,20.00
2023-05-14T11:32:30.768Z,19.90
2023-05-14T11:34:59.298Z,19.80
2023-05-14T11:37:27.749Z,19.70
2023-05-14T11:39:57.233Z,19.60
2023-05-14T11:42:25.956Z,19.60
2023-05-14T11:44:55.686Z,19.50
2023-05-14T11:47:24.122Z,19.50
2023-05-14T11:49:52.421Z,19.30
2023-05-14T11:52:22.095Z,19.10
2023-05-14T11:54:51.025Z,19.00
2023-05-14T11:57:21.212Z,18.90
2023-05-14T11:59:56.109Z,18.80
2023-05-14T12:02:29.160Z,18.70
2023-05-14T12:04:58.585Z,18.70
2023-05-14T12:07:30.767Z,18.70
2023-05-14T12:10:02.574Z,18.70
2023-05-14T12:12:36.617Z,18.80
2023-05-14T12:15:12.544Z,18.80
2023-05-14T12:17:42.811Z,18.90
2023-05-14T12:20:13.164Z,18.90
2023-05-14T12:22:43.851Z,18.80
2023-05-14T12:25:14.405Z,18.80
2023-05-14T12:27:45.480Z,18.80
2023-05-14T12:33:04.823Z,18.70
2023-05-14T12:35:33.258Z,18.70
2023-05-14T12:38:02.167Z,18.60
2023-05-14T12:40:30.508Z,18.60
2023-05-14T12:42:58.876Z,18.60
2023-05-14T12:45:27.265Z,18.60
2023-05-14T12:47:55.616Z,18.60
2023-05-14T12:50:25.586Z,18.60
2023-05-14T12:52:54.233Z,18.50
2023-05-14T12:55:23.014Z,18.50
2023-05-14T12:57:51.523Z,18.40
2023-05-14T13:00:21.427Z,18.30
2023-05-14T13:02:49.844Z,18.30
2023-05-14T13:05:18.246Z,18.30
2023-05-14T13:07:48.145Z,18.30
2023-05-14T13:10:18.425Z,18.20
2023-05-14T13:12:46.780Z,18.20
2023-05-14T13:15:15.144Z,18.20
2023-05-14T13:17:43.519Z,18.20
2023-05-14T13:20:12.638Z,18.10
2023-05-14T13:22:41.177Z,18.20
2023-05-14T13:25:11.487Z,18.10
2023-05-14T13:27:39.804Z,18.10
2023-05-14T13:30:09.344Z,18.10
2023-05-14T13:32:39.647Z,18.10
2023-05-14T13:35:10.530Z,18.00
2023-05-14T13:37:38.893Z,17.90
2023-05-14T13:40:08.651Z,17.90
2023-05-14T13:42:39.760Z,18.00
2023-05-14T13:45:09.965Z,18.00
2023-05-14T13:47:39.877Z,18.10
2023-05-14T13:50:09.368Z,18.20
2023-05-14T13:52:39.123Z,18.30
2023-05-14T13:55:08.705Z,18.50
2023-05-14T13:57:39.877Z,18.50
2023-05-14T14:00:09.665Z,18.60
2023-05-14T14:02:37.976Z,18.70
2023-05-14T14:05:07.308Z,18.80
2023-05-14T14:07:35.612Z,18.90
2023-05-14T14:10:04.913Z,19.00
2023-05-14T14:12:33.359Z,19.00
2023-05-14T14:15:04.237Z,19.10
2023-05-14T14:17:34.037Z,19.10
2023-05-14T14:20:06.116Z,19.30
2023-05-14T14:22:34.778Z,19.40
2023-05-14T14:25:03.082Z,19.70
2023-05-14T14:27:32.227Z,20.00
2023-05-14T14:30:00.534Z,20.10
2023-05-14T14:32:30.885Z,20.20
2023-05-14T14:34:59.258Z,20.10
2023-05-14T14:37:27.716Z,20.30
2023-05-14T14:39:56.075Z,20.50
2023-05-14T14:42:24.522Z,20.60
2023-05-14T14:44:52.863Z,20.70
2023-05-14T14:47:21.137Z,20.60
2023-05-14T14:49:50.843Z,20.70
2023-05-14T14:52:19.166Z,20.70
2023-05-14T14:54:47.472Z,20.80
2023-05-14T14:57:15.782Z,21.10
2023-05-14T14:59:44.361Z,21.10
2023-05-14T15:02:12.741Z,21.00
2023-05-14T15:04:41.218Z,20.80
2023-05-14T15:07:11.300Z,20.80
2023-05-14T15:09:39.668Z,20.80
2023-05-14T15:12:09.147Z,20.70
2023-05-14T15:14:37.594Z,20.80
2023-05-14T15:17:06.724Z,20.90
2023-05-14T15:19:35.182Z,20.90
2023-05-14T15:22:03.811Z,20.80
2023-05-14T15:24:33.558Z,20.70
2023-05-14T15:27:02.026Z,20.70
2023-05-14T15:29:30.481Z,20.60
2023-05-14T15:31:58.904Z,20.50
2023-05-14T15:34:27.516Z,20.50
2023-05-14T15:36:56.733Z,20.40
2023-05-14T15:39:25.098Z,20.40
2023-05-14T15:41:54.835Z,20.40
2023-05-14T15:44:23.179Z,20.30
2023-05-14T15:46:51.562Z,20.30
2023-05-14T15:49:19.892Z,20.20
2023-05-14T15:51:48.447Z,20.30
2023-05-14T15:54:16.784Z,20.20
2023-05-14T15:56:45.291Z,20.20
2023-05-14T15:59:16.606Z,20.30
2023-05-14T16:01:45.002Z,20.50
2023-05-14T16:04:13.492Z,20.50
2023-05-14T16:06:42.806Z,20.80
2023-05-14T16:09:11.438Z,21.10
2023-05-14T16:11:39.753Z,21.00
2023-05-14T16:14:08.117Z,20.90
2023-05-14T16:16:38.017Z,20.80
2023-05-14T16:19:06.485Z,20.70
2023-05-14T16:21:35.409Z,20.70
2023-05-14T16:24:03.742Z,20.60
2023-05-14T16:26:32.169Z,20.60
2023-05-14T16:29:00.667Z,20.50
2023-05-14T16:31:29.060Z,20.50
2023-05-14T16:33:59.432Z,20.50
2023-05-14T16:36:28.254Z,20.60
2023-05-14T16:39:07.081Z,20.60
2023-05-14T16:41:36.927Z,20.60
2023-05-14T16:44:05.398Z,20.60
2023-05-14T16:46:34.591Z,20.60
2023-05-14T16:49:04.337Z,20.70
2023-05-14T16:51:32.940Z,20.70
2023-05-14T16:54:03.704Z,20.70
2023-05-14T16:56:32.536Z,20.60
2023-05-14T16:59:00.995Z,20.60
2023-05-14T17:01:29.833Z,20.60
2023-05-14T17:03:58.261Z,20.50
2023-05-14T17:06:28.061Z,20.50
2023-05-14T17:08:56.561Z,20.50
2023-05-14T17:11:25.073Z,20.40
2023-05-14T17:13:53.331Z,20.40
2023-05-14T17:16:22.147Z,20.30
2023-05-14T17:18:50.585Z,20.30
2023-05-14T17:21:18.912Z,20.30
2023-05-14T17:23:48.809Z,20.30
2023-05-14T17:26:17.579Z,20.20
2023-05-14T17:28:46.095Z,20.10
2023-05-14T17:31:19.073Z,20.10
2023-05-14T17:33:47.429Z,20.10
2023-05-14T17:36:15.774Z,20.10
2023-05-14T17:38:44.073Z,20.10
2023-05-14T17:41:13.891Z,20.00
2023-05-14T17:43:42.198Z,19.90
2023-05-14T17:46:10.645Z,19.70
2023-05-14T17:48:39.050Z,19.70
2023-05-14T17:51:07.349Z,19.60
2023-05-14T17:53:35.815Z,19.60
2023-05-14T17:56:04.237Z,19.50
2023-05-14T17:58:37.752Z,19.50
2023-05-14T18:01:10.546Z,19.50
2023-05-14T18:03:39.438Z,19.50
2023-05-14T18:06:07.910Z,19.50
2023-05-14T18:08:36.272Z,19.50
2023-05-14T18:11:04.745Z,19.50
2023-05-14T18:13:35.082Z,19.50
2023-05-14T18:16:03.977Z,19.50
2023-05-14T18:18:32.717Z,19.50
2023-05-14T18:21:01.303Z,19.50
2023-05-14T18:23:29.820Z,19.40
2023-05-14T18:25:58.176Z,19.40
2023-05-14T18:28:26.590Z,19.40
2023-05-14T18:30:56.342Z,19.50
2023-05-14T18:33:24.726Z,19.50
2023-05-14T18:35:53.582Z,19.30
2023-05-14T18:38:21.942Z,19.30
2023-05-14T18:40:50.562Z,19.20
2023-05-14T18:43:19.791Z,19.20
2023-05-14T18:45:48.419Z,19.10
2023-05-14T18:48:18.197Z,19.10
2023-05-14T18:50:46.477Z,19.10
2023-05-14T18:53:14.839Z,19.10
2023-05-14T18:55:43.234Z,19.10
2023-05-14T18:58:12.110Z,19.10
2023-05-14T19:00:40.457Z,19.10
2023-05-14T19:03:08.824Z,19.10
2023-05-14T19:05:40.184Z,19.10
2023-05-14T19:08:11.933Z,19.20
2023-05-14T19:10:40.255Z,19.20
2023-05-14T19:13:08.625Z,19.30
2023-05-14T19:15:37.010Z,19.40
2023-05-14T19:18:05.725Z,19.40
2023-05-14T19:20:34.098Z,19.30
2023-05-14T19:23:03.874Z,19.10
2023-05-14T19:25:32.763Z,19.00
2023-05-14T19:28:03.754Z,18.90
2023-05-14T19:30:32.280Z,18.80
2023-05-14T19:33:00.746Z,18.70
2023-05-14T19:35:29.216Z,18.60
2023-05-14T19:37:57.515Z,18.60
2023-05-14T19:40:27.385Z,18.60
2023-05-14T19:42:55.684Z,18.50
2023-05-14T19:45:24.280Z,18.50
2023-05-14T19:47:52.777Z,18.60
2023-05-14T19:50:21.207Z,18.50
2023-05-14T19:52:49.733Z,18.40
2023-05-14T19:55:18.194Z,18.40
2023-05-14T19:57:47.894Z,18.20
2023-05-14T20:00:16.693Z,18.10
2023-05-14T20:02:45.080Z,18.00
2023-05-14T20:05:13.989Z,17.90
2023-05-14T20:07:42.662Z,17.80
2023-05-14T20:10:11.882Z,17.60
2023-05-14T20:12:40.221Z,17.60
2023-05-14T20:15:11.054Z,17.60
2023-05-14T20:17:39.602Z,17.50
2023-05-14T20:20:09.972Z,17.50
2023-05-14T20:22:40.112Z,17.50
2023-05-14T20:25:09.145Z,17.40
2023-05-14T20:27:37.468Z,17.40
2023-05-14T20:30:07.123Z,17.50
2023-05-14T20:32:37.549Z,17.50
2023-05-14T20:35:06.728Z,17.50
2023-05-14T20:37:35.093Z,17.50
2023-05-14T20:40:05.008Z,17.40
2023-05-14T20:42:33.494Z,17.40
2023-05-14T20:45:01.837Z,17.30
2023-05-14T20:47:31.451Z,17.20
2023-05-14T20:50:01.456Z,17.10
2023-05-14T20:52:29.801Z,17.00
2023-05-14T20:55:00.794Z,16.90
2023-05-14T20:57:30.406Z,16.90
2023-05-14T20:59:58.730Z,16.90
2023-05-14T21:02:27.270Z,16.80
2023-05-14T21:04:55.773Z,16.80
2023-05-14T21:07:27.104Z,16.80
2023-05-14T21:09:57.454Z,16.80
2023-05-14T21:12:25.850Z,16.80
2023-05-14T21:14:54.249Z,16.80
2023-05-14T21:17:22.691Z,16.80
2023-05-14T21:19:51.058Z,16.80
2023-05-14T21:22:19.426Z,16.80
2023-05-14T21:24:50.264Z,16.80
2023-05-14T21:27:18.651Z,16.80
2023-05-14T21:29:47.265Z,16.90
2023-05-14T21:32:15.676Z,16.90
2023-05-14T21:34:44.355Z,17.00
2023-05-14T21:37:12.843Z,17.10
2023-05-14T21:39:41.142Z,17.20
2023-05-14T21:42:11.332Z,17.30
2023-05-14T21:44:39.619Z,17.40
2023-05-14T21:47:08.589Z,17.50
2023-05-14T21:49:36.980Z,17.60
2023-05-14T21:52:05.924Z,17.70
2023-05-14T21:54:34.256Z,17.70
2023-05-14T21:57:02.888Z,17.80
2023-05-14T21:59:35.207Z,17.80
2023-05-14T22:02:07.215Z,17.80
2023-05-14T22:04:36.426Z,17.80
2023-05-14T22:07:04.984Z,17.90
2023-05-14T22:09:33.354Z,17.90
2023-05-14T22:12:01.898Z,18.00
2023-05-14T22:14:31.038Z,18.00
2023-05-14T22:17:00.806Z,18.10
2023-05-14T22:19:29.274Z,18.10
2023-05-14T22:21:57.819Z,18.20
2023-05-14T22:24:26.185Z,18.40
2023-05-14T22:26:54.757Z,18.50
2023-05-14T22:29:23.078Z,18.60
2023-05-14T22:31:51.733Z,18.60
2023-05-14T22:34:21.493Z,18.70
2023-05-14T22:36:49.834Z,18.70
2023-05-14T22:39:18.214Z,18.80
2023-05-14T22:41:46.552Z,18.80
2023-05-14T22:44:15.392Z,18.80
2023-05-14T22:46:43.737Z,18.90
2023-05-14T22:49:12.051Z,19.00
2023-05-14T22:51:42.574Z,18.90
2023-05-14T22:54:12.008Z,19.10
2023-05-14T22:56:40.355Z,19.10
2023-05-14T22:59:08.828Z,19.10
2023-05-14T23:01:37.206Z,19.10
2023-05-14T23:04:05.665Z,19.10
2023-05-14T23:06:34.030Z,19.10
2023-05-14T23:09:03.704Z,19.10
2023-05-14T23:11:32.063Z,19.10
2023-05-14T23:14:00.890Z,18.90
2023-05-14T23:16:29.188Z,18.80
2023-05-14T23:18:57.720Z,18.60
2023-05-14T23:21:26.145Z,18.40
2023-05-14T23:23:54.459Z,18.30
2023-05-14T23:26:24.149Z,18.20
2023-05-14T23:28:52.551Z,18.10
2023-05-14T23:31:20.858Z,18.00
2023-05-14T23:33:49.247Z,17.80
2023-05-14T23:36:17.576Z,17.70
2023-05-14T23:38:46.081Z,17.60
2023-05-14T23:41:14.373Z,17.60
2023-05-14T23:43:44.069Z,17.70
2023-05-14T23:46:12.430Z,17.60
2023-05-14T23:48:40.767Z,17.50
2023-05-14T23:51:09.045Z,17.40
2023-05-14T23:53:37.511Z,17.40
2023-05-14T23:56:05.951Z,17.30
2023-05-14T23:58:34.411Z,17.30
